createdAt,value
2018-12-26T00:01:56.550Z,18.55
2018-12-26T00:04:36.762Z,16.87
2018-12-26T00:07:16.673Z,15.83
2018-12-26T00:09:56.929Z,14.50
2018-12-26T00:12:36.383Z,14.38
2018-12-26T00:15:16.294Z,18.17
2018-12-26T00:17:56.768Z,15.98
2018-12-26T00:20:37.073Z,15.75
2018-12-26T00:23:17.443Z,16.73
2018-12-26T00:26:01.609Z,16.55
2018-12-26T00:28:39.798Z,16.87
2018-12-26T00:31:19.782Z,16.55
2018-12-26T00:33:59.479Z,16.65
2018-12-26T00:36:39.844Z,14.53
2018-12-26T00:39:19.545Z,13.48
2018-12-26T00:42:00.094Z,13.00
2018-12-26T00:44:27.982Z,11.60
2018-12-26T00:47:14.585Z,14.03
2018-12-26T00:50:01.578Z,13.75
2018-12-26T00:52:48.573Z,14.68
2018-12-26T00:55:35.709Z,15.20
2018-12-26T00:58:15.939Z,14.35
2018-12-26T01:00:56.374Z,13.50
2018-12-26T01:03:36.588Z,35.48
2018-12-26T01:06:16.249Z,46.28
2018-12-26T01:08:56.374Z,28.23
2018-12-26T01:11:36.219Z,16.52
2018-12-26T01:14:16.782Z,16.15
2018-12-26T01:16:56.882Z,17.60
2018-12-26T01:19:36.669Z,16.75
2018-12-26T01:22:16.720Z,18.25
2018-12-26T01:24:56.862Z,28.83
2018-12-26T01:27:36.866Z,24.63
2018-12-26T01:30:17.271Z,21.40
2018-12-26T01:32:57.082Z,20.72
2018-12-26T01:35:37.268Z,15.15
2018-12-26T01:38:17.223Z,14.60
2018-12-26T01:40:56.679Z,14.98
2018-12-26T01:43:36.986Z,13.95
2018-12-26T01:46:16.414Z,14.35
2018-12-26T01:48:57.086Z,15.70
2018-12-26T01:51:36.938Z,14.55
2018-12-26T01:54:16.850Z,12.28
2018-12-26T01:56:56.702Z,11.75
2018-12-26T02:02:29.291Z,12.30
2018-12-26T02:05:15.850Z,12.33
2018-12-26T02:08:02.550Z,10.95
2018-12-26T02:10:49.629Z,12.43
2018-12-26T02:13:36.329Z,11.80
2018-12-26T02:16:23.344Z,12.47
2018-12-26T02:19:10.685Z,11.40
2018-12-26T02:21:57.999Z,11.63
2018-12-26T02:24:45.315Z,11.85
2018-12-26T02:27:32.328Z,10.40
2018-12-26T02:30:19.224Z,11.60
2018-12-26T02:33:05.645Z,12.10
2018-12-26T02:35:52.782Z,13.18
2018-12-26T02:38:39.797Z,14.00
2018-12-26T02:41:26.251Z,13.22
2018-12-26T02:44:12.779Z,14.28
2018-12-26T02:46:59.471Z,15.43
2018-12-26T02:49:46.177Z,12.47
2018-12-26T02:52:32.885Z,12.60
2018-12-26T02:55:20.147Z,12.70
2018-12-26T02:58:07.109Z,13.45
2018-12-26T03:00:53.838Z,11.43
2018-12-26T03:03:40.669Z,12.23
2018-12-26T03:06:27.577Z,11.85
2018-12-26T03:09:14.696Z,10.93
2018-12-26T03:12:01.414Z,12.37
2018-12-26T03:14:48.112Z,12.55
2018-12-26T03:17:34.810Z,11.10
2018-12-26T03:20:21.494Z,10.98
2018-12-26T03:23:08.850Z,10.78
2018-12-26T03:25:55.870Z,19.20
2018-12-26T03:28:43.009Z,12.80
2018-12-26T03:31:30.024Z,13.25
2018-12-26T03:34:17.336Z,12.37
2018-12-26T03:37:04.575Z,15.58
2018-12-26T03:39:51.803Z,20.23
2018-12-26T03:42:39.211Z,21.68
2018-12-26T03:45:26.309Z,18.00
2018-12-26T03:48:13.837Z,16.10
2018-12-26T03:51:00.969Z,16.35
2018-12-26T03:53:48.075Z,20.65
2018-12-26T03:56:35.211Z,19.05
2018-12-26T03:59:15.594Z,17.15
2018-12-26T04:01:55.814Z,17.05
2018-12-26T04:04:35.679Z,15.98
2018-12-26T04:07:15.707Z,14.87
2018-12-26T04:09:55.982Z,12.75
2018-12-26T04:12:36.090Z,14.35
2018-12-26T04:15:15.984Z,14.63
2018-12-26T04:17:56.243Z,13.80
2018-12-26T04:20:36.106Z,14.68
2018-12-26T04:23:16.190Z,16.32
2018-12-26T04:25:56.286Z,15.58
2018-12-26T04:28:36.127Z,15.58
2018-12-26T04:31:16.342Z,13.40
2018-12-26T04:33:56.714Z,13.48
2018-12-26T04:36:36.554Z,12.85
2018-12-26T04:39:17.093Z,12.78
2018-12-26T04:41:56.941Z,12.07
2018-12-26T04:44:36.731Z,12.10
2018-12-26T04:47:17.080Z,13.95
2018-12-26T04:49:56.901Z,13.15
2018-12-26T04:52:37.027Z,12.73
2018-12-26T04:55:16.985Z,12.85
2018-12-26T04:57:56.842Z,11.65
2018-12-26T05:00:37.430Z,12.03
2018-12-26T05:03:17.258Z,13.03
2018-12-26T05:05:57.343Z,13.43
2018-12-26T05:08:37.442Z,11.65
2018-12-26T05:11:17.475Z,12.35
2018-12-26T05:13:57.333Z,13.38
2018-12-26T05:16:37.396Z,13.03
2018-12-26T05:19:17.875Z,11.83
2018-12-26T05:21:57.318Z,11.48
2018-12-26T05:24:37.513Z,12.40
2018-12-26T05:27:17.773Z,14.53
2018-12-26T05:29:57.815Z,13.25
2018-12-26T05:32:37.872Z,13.68
2018-12-26T05:35:18.406Z,14.65
2018-12-26T05:37:58.129Z,20.90
2018-12-26T05:40:38.118Z,12.43
2018-12-26T05:43:18.263Z,16.65
2018-12-26T05:45:58.227Z,13.75
2018-12-26T05:48:38.274Z,12.35
2018-12-26T05:51:17.938Z,10.90
2018-12-26T05:53:58.090Z,12.73
2018-12-26T05:56:38.628Z,12.50
2018-12-26T05:59:18.018Z,10.75
2018-12-26T06:01:58.585Z,10.60
2018-12-26T06:04:38.470Z,10.80
2018-12-26T06:07:18.217Z,10.68
2018-12-26T06:09:58.422Z,10.58
2018-12-26T06:12:38.569Z,11.80
2018-12-26T06:15:18.606Z,10.68
2018-12-26T06:17:58.737Z,12.47
2018-12-26T06:20:38.943Z,11.65
2018-12-26T06:23:19.537Z,11.83
2018-12-26T06:25:59.625Z,10.45
2018-12-26T06:28:40.012Z,11.55
2018-12-26T06:31:20.194Z,13.88
2018-12-26T06:34:00.462Z,20.00
2018-12-26T06:36:39.999Z,16.20
2018-12-26T06:39:20.414Z,13.80
2018-12-26T06:42:00.214Z,12.98
2018-12-26T06:44:40.256Z,12.78
2018-12-26T06:47:20.335Z,13.43
2018-12-26T06:50:00.339Z,11.53
2018-12-26T06:52:40.318Z,11.95
2018-12-26T06:55:20.431Z,10.23
2018-12-26T06:58:00.544Z,18.98
2018-12-26T07:00:40.915Z,22.65
2018-12-26T07:03:21.175Z,17.10
2018-12-26T07:06:01.354Z,14.38
2018-12-26T07:08:41.454Z,13.90
2018-12-26T07:11:23.098Z,13.93
2018-12-26T07:14:03.402Z,16.70
2018-12-26T07:16:43.806Z,19.15
2018-12-26T07:19:23.723Z,14.65
2018-12-26T07:22:03.757Z,14.30
2018-12-26T07:24:43.924Z,12.93
2018-12-26T07:27:23.601Z,12.85
2018-12-26T07:30:03.806Z,14.98
2018-12-26T07:32:43.950Z,13.15
2018-12-26T07:35:23.981Z,16.10
2018-12-26T07:38:04.414Z,12.53
2018-12-26T07:40:44.666Z,13.08
2018-12-26T07:43:24.733Z,12.98
2018-12-26T07:46:04.450Z,17.67
2018-12-26T07:48:44.818Z,16.97
2018-12-26T07:51:25.014Z,18.87
2018-12-26T07:54:04.804Z,21.15
2018-12-26T07:56:45.196Z,24.20
2018-12-26T07:59:25.295Z,21.82
2018-12-26T08:02:05.246Z,19.15
2018-12-26T08:04:45.202Z,20.35
2018-12-26T08:07:25.233Z,22.65
2018-12-26T08:10:05.286Z,21.20
2018-12-26T08:12:45.338Z,20.08
2018-12-26T08:15:25.872Z,17.70
2018-12-26T08:18:05.906Z,18.00
2018-12-26T08:20:45.454Z,17.25
2018-12-26T08:23:26.238Z,17.65
2018-12-26T08:26:06.438Z,16.30
2018-12-26T08:28:46.238Z,28.35
2018-12-26T08:31:26.526Z,20.82
2018-12-26T08:34:06.918Z,39.33
2018-12-26T08:36:46.746Z,29.20
2018-12-26T08:39:26.865Z,26.68
2018-12-26T08:42:07.233Z,34.50
2018-12-26T08:44:47.151Z,27.40
2018-12-26T08:47:27.514Z,21.85
2018-12-26T08:50:07.546Z,22.02
2018-12-26T08:52:47.754Z,30.43
2018-12-26T08:55:27.735Z,21.27
2018-12-26T08:58:07.367Z,16.55
2018-12-26T09:00:47.605Z,36.08
2018-12-26T09:03:27.958Z,27.05
2018-12-26T09:06:08.052Z,28.25
2018-12-26T09:08:48.093Z,23.92
2018-12-26T09:11:28.340Z,22.32
2018-12-26T09:14:08.571Z,18.20
2018-12-26T09:16:48.716Z,14.60
2018-12-26T09:19:28.730Z,14.60
2018-12-26T09:22:08.393Z,13.32
2018-12-26T09:24:48.845Z,12.37
2018-12-26T09:27:28.885Z,11.80
2018-12-26T09:30:09.085Z,16.42
2018-12-26T09:32:48.853Z,22.62
2018-12-26T09:35:29.234Z,25.82
2018-12-26T09:38:08.664Z,21.65
2018-12-26T09:40:49.365Z,18.67
2018-12-26T09:43:29.458Z,18.95
2018-12-26T09:46:09.675Z,16.85
2018-12-26T09:48:49.138Z,21.77
2018-12-26T09:51:29.343Z,24.50
2018-12-26T09:54:09.655Z,24.37
2018-12-26T09:56:49.963Z,20.68
2018-12-26T09:59:30.103Z,18.73
2018-12-26T10:05:18.093Z,11.85
2018-12-26T10:07:58.626Z,10.80
2018-12-26T10:10:38.422Z,13.25
2018-12-26T10:13:18.613Z,9.65
2018-12-26T10:15:58.635Z,12.82
2018-12-26T10:18:38.779Z,11.30
2018-12-26T10:21:19.211Z,11.12
2018-12-26T10:23:58.814Z,12.00
2018-12-26T10:26:38.537Z,9.20
2018-12-26T10:29:18.974Z,10.13
2018-12-26T10:31:58.778Z,9.83
2018-12-26T10:34:39.189Z,8.95
2018-12-26T10:37:19.131Z,16.32
2018-12-26T10:39:59.114Z,14.83
2018-12-26T10:42:39.235Z,13.65
2018-12-26T10:45:06.605Z,10.45
2018-12-26T10:47:53.698Z,13.80
2018-12-26T10:50:40.726Z,11.45
2018-12-26T10:53:27.510Z,10.98
2018-12-26T10:59:36.827Z,9.58
2018-12-26T11:02:16.897Z,9.63
2018-12-26T11:04:57.358Z,9.48
2018-12-26T11:07:37.268Z,9.60
2018-12-26T11:10:17.467Z,9.63
2018-12-26T11:12:57.609Z,8.75
2018-12-26T11:15:37.421Z,9.80
2018-12-26T11:18:17.621Z,9.00
2018-12-26T11:20:57.933Z,9.40
2018-12-26T11:23:37.902Z,8.70
2018-12-26T11:26:17.334Z,10.35
2018-12-26T11:28:57.574Z,8.75
2018-12-26T11:31:37.578Z,9.18
2018-12-26T11:34:17.731Z,8.43
2018-12-26T11:36:57.699Z,9.10
2018-12-26T11:39:38.026Z,9.60
2018-12-26T11:42:17.922Z,9.25
2018-12-26T11:44:57.678Z,9.83
2018-12-26T11:47:37.442Z,9.45
2018-12-26T11:50:17.553Z,10.20
2018-12-26T11:52:57.550Z,10.08
2018-12-26T11:55:37.735Z,10.03
2018-12-26T11:58:18.034Z,9.00
2018-12-26T12:00:58.298Z,10.53
2018-12-26T12:03:37.949Z,10.38
2018-12-26T12:06:18.031Z,10.63
2018-12-26T12:08:58.446Z,11.10
2018-12-26T12:11:38.226Z,10.70
2018-12-26T12:14:18.459Z,9.83
2018-12-26T12:16:58.041Z,9.73
2018-12-26T12:19:38.123Z,11.15
2018-12-26T12:22:18.227Z,9.55
2018-12-26T12:24:58.579Z,10.98
2018-12-26T12:27:38.134Z,9.20
2018-12-26T12:30:18.507Z,10.70
2018-12-26T12:32:58.559Z,10.72
2018-12-26T12:35:38.775Z,10.88
2018-12-26T12:38:18.749Z,11.55
2018-12-26T12:40:58.926Z,12.40
2018-12-26T12:43:38.943Z,10.98
2018-12-26T12:46:18.941Z,12.13
2018-12-26T12:48:59.255Z,13.78
2018-12-26T12:51:38.895Z,13.25
2018-12-26T12:54:19.016Z,12.07
2018-12-26T12:56:59.143Z,10.82
2018-12-26T12:59:44.803Z,10.90
2018-12-26T13:02:21.075Z,9.90
2018-12-26T13:05:01.091Z,10.20
2018-12-26T13:07:40.883Z,9.75
2018-12-26T13:10:21.033Z,12.10
2018-12-26T13:13:01.087Z,10.13
2018-12-26T13:15:41.019Z,11.85
2018-12-26T13:18:21.051Z,10.88
2018-12-26T13:21:01.106Z,11.08
2018-12-26T13:23:40.638Z,12.33
2018-12-26T13:26:20.481Z,11.43
2018-12-26T13:29:00.695Z,11.00
2018-12-26T13:31:40.883Z,11.10
2018-12-26T13:34:20.719Z,11.57
2018-12-26T13:37:00.662Z,11.15
2018-12-26T13:39:41.043Z,13.22
2018-12-26T13:42:21.037Z,13.40
2018-12-26T13:45:00.861Z,12.73
2018-12-26T13:47:41.276Z,11.55
2018-12-26T13:50:21.423Z,11.33
2018-12-26T13:53:01.386Z,12.15
2018-12-26T13:55:41.445Z,12.73
2018-12-26T13:58:21.393Z,10.72
2018-12-26T14:01:01.692Z,11.28
2018-12-26T14:03:41.490Z,11.05
2018-12-26T14:06:21.834Z,11.85
2018-12-26T14:09:01.415Z,12.05
2018-12-26T14:11:40.741Z,10.93
2018-12-26T14:14:21.137Z,12.35
2018-12-26T14:17:01.246Z,10.70
2018-12-26T14:19:41.792Z,12.47
2018-12-26T14:22:21.830Z,12.00
2018-12-26T14:25:02.045Z,11.85
2018-12-26T14:27:42.259Z,12.75
2018-12-26T14:30:22.276Z,12.63
2018-12-26T14:33:02.295Z,11.70
2018-12-26T14:35:42.335Z,11.93
2018-12-26T14:38:22.190Z,11.70
2018-12-26T14:41:02.455Z,11.55
2018-12-26T14:43:42.934Z,13.15
2018-12-26T14:46:10.570Z,12.58
2018-12-26T14:49:16.939Z,11.65
2018-12-26T14:52:03.770Z,12.90
2018-12-26T14:54:50.946Z,12.15
2018-12-26T14:57:38.029Z,11.88
2018-12-26T15:00:24.798Z,12.90
2018-12-26T15:03:11.647Z,12.30
2018-12-26T15:06:00.289Z,13.35
2018-12-26T15:08:48.201Z,11.53
2018-12-26T15:11:35.498Z,12.33
2018-12-26T15:14:22.186Z,12.90
2018-12-26T15:17:09.324Z,11.73
2018-12-26T15:19:56.446Z,11.97
2018-12-26T15:22:43.458Z,12.95
2018-12-26T15:25:30.267Z,13.40
2018-12-26T15:28:16.965Z,11.68
2018-12-26T15:31:04.407Z,12.95
2018-12-26T15:33:51.502Z,12.88
2018-12-26T15:36:38.538Z,11.80
2018-12-26T15:39:25.654Z,12.45
2018-12-26T15:42:12.602Z,12.70
2018-12-26T15:44:59.350Z,13.98
2018-12-26T15:47:46.608Z,13.28
2018-12-26T15:50:33.336Z,13.03
2018-12-26T15:53:20.624Z,12.18
2018-12-26T15:56:07.083Z,13.25
2018-12-26T15:58:46.846Z,12.10
2018-12-26T16:01:27.334Z,12.33
2018-12-26T16:04:09.384Z,12.78
2018-12-26T16:06:49.110Z,14.33
2018-12-26T16:09:29.523Z,12.50
2018-12-26T16:12:09.451Z,13.85
2018-12-26T16:14:49.378Z,12.18
2018-12-26T16:17:29.442Z,13.78
2018-12-26T16:20:09.327Z,12.70
2018-12-26T16:22:49.675Z,11.80
2018-12-26T16:25:29.699Z,13.45
2018-12-26T16:28:09.698Z,12.90
2018-12-26T16:30:49.750Z,13.50
2018-12-26T16:33:30.312Z,13.48
2018-12-26T16:36:10.195Z,14.07
2018-12-26T16:38:50.297Z,13.38
2018-12-26T16:41:30.844Z,12.90
2018-12-26T16:44:10.919Z,14.15
2018-12-26T16:46:51.458Z,13.80
2018-12-26T16:49:31.445Z,13.93
2018-12-26T16:52:11.585Z,14.53
2018-12-26T16:54:51.374Z,14.33
2018-12-26T16:57:32.196Z,14.85
2018-12-26T17:00:12.212Z,15.38
2018-12-26T17:05:57.710Z,17.12
2018-12-26T17:08:37.773Z,20.48
2018-12-26T17:11:17.661Z,22.13
2018-12-26T17:13:57.503Z,21.17
2018-12-26T17:16:37.578Z,23.92
2018-12-26T17:19:18.145Z,25.27
2018-12-26T17:21:58.202Z,23.67
2018-12-26T17:24:38.098Z,25.40
2018-12-26T17:27:17.932Z,25.55
2018-12-26T17:29:57.864Z,22.32
2018-12-26T17:32:38.311Z,20.35
2018-12-26T17:35:18.470Z,21.02
2018-12-26T17:37:58.370Z,21.65
2018-12-26T17:40:38.850Z,19.37
2018-12-26T17:43:18.650Z,20.97
2018-12-26T17:45:58.565Z,18.40
2018-12-26T17:48:38.671Z,17.00
2018-12-26T17:51:18.986Z,21.52
2018-12-26T17:53:59.654Z,19.25
2018-12-26T17:56:39.291Z,21.90
2018-12-26T17:59:19.525Z,21.65
2018-12-26T18:01:59.720Z,26.57
2018-12-26T18:04:39.997Z,23.87
2018-12-26T18:07:20.338Z,27.30
2018-12-26T18:10:00.250Z,28.25
2018-12-26T18:12:40.663Z,33.70
2018-12-26T18:15:21.030Z,33.02
2018-12-26T18:18:01.042Z,35.03
2018-12-26T18:20:41.037Z,32.93
2018-12-26T18:23:20.970Z,34.10
2018-12-26T18:26:01.083Z,29.42
2018-12-26T18:28:41.414Z,22.45
2018-12-26T18:31:22.133Z,20.02
2018-12-26T18:34:02.526Z,17.80
2018-12-26T18:36:45.692Z,21.90
2018-12-26T18:39:26.067Z,19.95
2018-12-26T18:45:07.385Z,17.75
2018-12-26T18:47:47.707Z,17.60
2018-12-26T18:50:27.898Z,19.00
2018-12-26T18:53:08.046Z,20.92
2018-12-26T18:55:48.169Z,26.55
2018-12-26T18:58:27.887Z,29.80
2018-12-26T19:01:07.849Z,29.67
2018-12-26T19:03:48.018Z,25.80
2018-12-26T19:06:28.290Z,30.02
2018-12-26T19:09:08.475Z,29.27
2018-12-26T19:11:48.471Z,28.92
2018-12-26T19:14:16.145Z,25.52
2018-12-26T19:17:02.970Z,24.37
2018-12-26T19:19:50.206Z,23.30
2018-12-26T19:22:37.846Z,22.65
2018-12-26T19:25:24.845Z,22.00
2018-12-26T19:28:12.080Z,24.60
2018-12-26T19:30:59.393Z,27.27
2018-12-26T19:33:46.720Z,26.35
2018-12-26T19:36:33.781Z,25.68
2018-12-26T19:39:20.846Z,25.50
2018-12-26T19:42:07.814Z,27.27
2018-12-26T19:44:54.888Z,24.40
2018-12-26T19:47:41.633Z,20.80
2018-12-26T19:50:28.493Z,23.25
2018-12-26T19:53:15.824Z,21.45
2018-12-26T19:55:43.776Z,24.60
2018-12-26T19:58:23.710Z,25.90
2018-12-26T20:01:04.142Z,26.90
2018-12-26T20:03:43.924Z,23.92
2018-12-26T20:06:23.751Z,23.67
2018-12-26T20:09:04.143Z,20.25
2018-12-26T20:11:44.327Z,24.23
2018-12-26T20:14:24.745Z,23.92
2018-12-26T20:17:04.722Z,22.27
2018-12-26T20:19:45.007Z,21.48
2018-12-26T20:22:25.230Z,21.17
2018-12-26T20:25:05.038Z,19.32
2018-12-26T20:27:45.487Z,19.52
2018-12-26T20:30:25.526Z,20.50
2018-12-26T20:33:05.458Z,20.48
2018-12-26T20:35:45.813Z,23.30
2018-12-26T20:38:25.986Z,24.37
2018-12-26T20:41:06.075Z,25.20
2018-12-26T20:43:45.832Z,24.18
2018-12-26T20:46:25.860Z,20.82
2018-12-26T20:49:06.170Z,21.42
2018-12-26T20:51:46.319Z,21.97
2018-12-26T20:54:26.370Z,21.48
2018-12-26T20:57:06.235Z,20.30
2018-12-26T20:59:46.309Z,20.62
2018-12-26T21:02:27.060Z,20.85
2018-12-26T21:05:06.979Z,21.48
2018-12-26T21:07:47.286Z,20.35
2018-12-26T21:10:27.083Z,22.20
2018-12-26T21:13:07.378Z,21.15
2018-12-26T21:15:47.732Z,20.02
2018-12-26T21:18:27.687Z,21.95
2018-12-26T21:21:08.338Z,21.95
2018-12-26T21:23:48.129Z,22.22
2018-12-26T21:26:28.527Z,21.82
2018-12-26T21:29:08.550Z,21.27
2018-12-26T21:31:49.018Z,21.62
2018-12-26T21:34:28.558Z,22.52
2018-12-26T21:36:56.261Z,24.00
2018-12-26T21:39:42.957Z,29.30
2018-12-26T21:42:29.725Z,30.75
2018-12-26T21:45:16.707Z,28.30
2018-12-26T21:48:04.424Z,28.50
2018-12-26T21:50:52.364Z,27.65
2018-12-26T21:53:39.731Z,26.87
2018-12-26T21:56:26.702Z,24.75
2018-12-26T21:59:06.935Z,26.50
2018-12-26T22:01:46.738Z,27.37
2018-12-26T22:04:26.935Z,26.87
2018-12-26T22:06:54.329Z,25.52
2018-12-26T22:09:41.329Z,24.85
2018-12-26T22:12:28.341Z,26.27
2018-12-26T22:15:15.524Z,23.98
2018-12-26T22:18:02.546Z,22.80
2018-12-26T22:20:49.830Z,22.60
2018-12-26T22:23:37.223Z,23.00
2018-12-26T22:26:23.928Z,21.82
2018-12-26T22:29:11.457Z,22.07
2018-12-26T22:31:58.545Z,22.80
2018-12-26T22:37:45.413Z,24.00
2018-12-26T22:43:48.830Z,24.87
2018-12-26T22:46:36.169Z,24.63
2018-12-26T22:49:22.891Z,25.10
2018-12-26T22:52:09.873Z,24.23
2018-12-26T22:54:57.933Z,23.70
2018-12-26T22:57:45.369Z,25.45
2018-12-26T23:03:25.958Z,22.62
2018-12-26T23:06:06.630Z,24.63
2018-12-26T23:08:47.373Z,26.00
2018-12-26T23:11:27.497Z,24.40
2018-12-26T23:14:07.472Z,27.00
2018-12-26T23:16:47.451Z,27.87
2018-12-26T23:19:31.200Z,31.00
2018-12-26T23:22:12.002Z,25.12
2018-12-26T23:24:51.662Z,23.98
2018-12-26T23:27:31.940Z,23.35
2018-12-26T23:30:11.222Z,22.87
2018-12-26T23:32:51.593Z,22.45
2018-12-26T23:35:31.644Z,22.07
2018-12-26T23:38:11.417Z,22.65
2018-12-26T23:40:51.493Z,25.70
2018-12-26T23:43:33.040Z,22.10
2018-12-26T23:46:12.902Z,23.10
2018-12-26T23:48:53.285Z,22.58
2018-12-26T23:51:33.151Z,24.18
2018-12-26T23:54:13.338Z,23.57
2018-12-26T23:56:53.751Z,24.92
2018-12-26T23:59:33.557Z,26.05
